sensor_id;sensor_type;location;lat;lon;timestamp;P1;durP1;ratioP1;P2;durP2;ratioP2
32613;SDS011;19031;51.400;6.770;2023-03-26T00:00:44;12.50;;;2.60;;
32613;SDS011;19031;51.400;6.770;2023-03-26T00:03:13;14.93;;;1.70;;
32613;SDS011;19031;51.400;6.770;2023-03-26T00:05:41;3.08;;;1.17;;
32613;SDS011;19031;51.400;6.770;2023-03-26T00:08:07;7.97;;;1.52;;
32613;SDS011;19031;51.400;6.770;2023-03-26T00:10:34;19.58;;;3.00;;
32613;SDS011;19031;51.400;6.770;2023-03-26T00:13:02;7.13;;;1.23;;
32613;SDS011;19031;51.400;6.770;2023-03-26T00:15:29;6.85;;;1.23;;
32613;SDS011;19031;51.400;6.770;2023-03-26T00:17:54;21.30;;;2.03;;
32613;SDS011;19031;51.400;6.770;2023-03-26T00:20:21;14.00;;;2.03;;
32613;SDS011;19031;51.400;6.770;2023-03-26T00:22:47;15.43;;;1.92;;
32613;SDS011;19031;51.400;6.770;2023-03-26T00:25:14;7.20;;;0.95;;
32613;SDS011;19031;51.400;6.770;2023-03-26T00:27:40;6.45;;;1.20;;
32613;SDS011;19031;51.400;6.770;2023-03-26T00:30:06;11.20;;;1.95;;
32613;SDS011;19031;51.400;6.770;2023-03-26T00:32:32;16.17;;;2.65;;
32613;SDS011;19031;51.400;6.770;2023-03-26T00:34:58;16.35;;;2.10;;
32613;SDS011;19031;51.400;6.770;2023-03-26T00:37:25;16.13;;;2.03;;
32613;SDS011;19031;51.400;6.770;2023-03-26T00:39:55;13.73;;;2.08;;
32613;SDS011;19031;51.400;6.770;2023-03-26T00:42:28;13.05;;;1.98;;
32613;SDS011;19031;51.400;6.770;2023-03-26T00:44:54;11.90;;;1.60;;
32613;SDS011;19031;51.400;6.770;2023-03-26T00:47:22;19.30;;;3.05;;
32613;SDS011;19031;51.400;6.770;2023-03-26T00:49:48;13.23;;;1.88;;
32613;SDS011;19031;51.400;6.770;2023-03-26T00:52:14;10.43;;;2.60;;
32613;SDS011;19031;51.400;6.770;2023-03-26T00:54:44;18.38;;;2.90;;
32613;SDS011;19031;51.400;6.770;2023-03-26T00:57:11;15.20;;;4.00;;
32613;SDS011;19031;51.400;6.770;2023-03-26T00:59:37;12.43;;;3.65;;
32613;SDS011;19031;51.400;6.770;2023-03-26T01:02:03;13.35;;;3.10;;
32613;SDS011;19031;51.400;6.770;2023-03-26T01:04:31;18.58;;;2.78;;
32613;SDS011;19031;51.400;6.770;2023-03-26T01:07:16;9.57;;;2.00;;
32613;SDS011;19031;51.400;6.770;2023-03-26T01:09:45;5.80;;;1.90;;
32613;SDS011;19031;51.400;6.770;2023-03-26T01:12:16;7.45;;;1.52;;
32613;SDS011;19031;51.400;6.770;2023-03-26T01:14:46;7.30;;;2.10;;
32613;SDS011;19031;51.400;6.770;2023-03-26T01:17:13;15.82;;;2.70;;
32613;SDS011;19031;51.400;6.770;2023-03-26T01:19:53;10.93;;;3.05;;
32613;SDS011;19031;51.400;6.770;2023-03-26T01:22:36;7.90;;;2.08;;
32613;SDS011;19031;51.400;6.770;2023-03-26T01:25:05;17.15;;;2.33;;
32613;SDS011;19031;51.400;6.770;2023-03-26T01:32:58;17.58;;;2.05;;
32613;SDS011;19031;51.400;6.770;2023-03-26T01:35:42;14.52;;;2.03;;
32613;SDS011;19031;51.400;6.770;2023-03-26T01:38:22;9.68;;;1.58;;
32613;SDS011;19031;51.400;6.770;2023-03-26T01:43:29;17.95;;;2.08;;
32613;SDS011;19031;51.400;6.770;2023-03-26T01:46:25;10.73;;;2.40;;
32613;SDS011;19031;51.400;6.770;2023-03-26T01:48:52;9.30;;;1.83;;
32613;SDS011;19031;51.400;6.770;2023-03-26T01:51:29;23.20;;;2.65;;
32613;SDS011;19031;51.400;6.770;2023-03-26T01:53:57;9.68;;;1.73;;
32613;SDS011;19031;51.400;6.770;2023-03-26T02:00:12;9.27;;;1.35;;
32613;SDS011;19031;51.400;6.770;2023-03-26T02:02:10;12.15;;;1.38;;
32613;SDS011;19031;51.400;6.770;2023-03-26T02:04:54;14.95;;;2.00;;
32613;SDS011;19031;51.400;6.770;2023-03-26T02:12:40;9.27;;;1.52;;
32613;SDS011;19031;51.400;6.770;2023-03-26T02:15:08;13.65;;;1.25;;
32613;SDS011;19031;51.400;6.770;2023-03-26T02:17:35;8.43;;;1.48;;
32613;SDS011;19031;51.400;6.770;2023-03-26T02:20:04;15.55;;;1.55;;
32613;SDS011;19031;51.400;6.770;2023-03-26T02:22:33;17.02;;;2.15;;
32613;SDS011;19031;51.400;6.770;2023-03-26T02:25:05;6.43;;;1.45;;
32613;SDS011;19031;51.400;6.770;2023-03-26T02:27:35;11.70;;;2.03;;
32613;SDS011;19031;51.400;6.770;2023-03-26T02:30:02;12.55;;;2.60;;
32613;SDS011;19031;51.400;6.770;2023-03-26T02:32:29;11.75;;;2.70;;
32613;SDS011;19031;51.400;6.770;2023-03-26T02:34:55;14.88;;;1.80;;
32613;SDS011;19031;51.400;6.770;2023-03-26T02:37:21;5.35;;;1.23;;
32613;SDS011;19031;51.400;6.770;2023-03-26T02:39:46;6.80;;;2.22;;
32613;SDS011;19031;51.400;6.770;2023-03-26T02:42:12;22.27;;;2.47;;
32613;SDS011;19031;51.400;6.770;2023-03-26T02:44:40;10.10;;;1.83;;
32613;SDS011;19031;51.400;6.770;2023-03-26T02:47:05;15.38;;;2.10;;
32613;SDS011;19031;51.400;6.770;2023-03-26T02:49:31;10.20;;;1.30;;
32613;SDS011;19031;51.400;6.770;2023-03-26T02:51:58;7.13;;;1.70;;
32613;SDS011;19031;51.400;6.770;2023-03-26T02:54:24;11.68;;;1.23;;
32613;SDS011;19031;51.400;6.770;2023-03-26T02:56:49;5.78;;;0.98;;
32613;SDS011;19031;51.400;6.770;2023-03-26T02:59:15;13.07;;;1.90;;
32613;SDS011;19031;51.400;6.770;2023-03-26T03:01:41;6.65;;;1.33;;
32613;SDS011;19031;51.400;6.770;2023-03-26T03:04:06;8.95;;;1.23;;
32613;SDS011;19031;51.400;6.770;2023-03-26T03:06:33;6.80;;;1.10;;
32613;SDS011;19031;51.400;6.770;2023-03-26T03:08:59;12.52;;;1.83;;
32613;SDS011;19031;51.400;6.770;2023-03-26T03:11:28;5.30;;;1.42;;
32613;SDS011;19031;51.400;6.770;2023-03-26T03:13:54;10.57;;;1.58;;
32613;SDS011;19031;51.400;6.770;2023-03-26T03:16:20;12.00;;;1.40;;
32613;SDS011;19031;51.400;6.770;2023-03-26T03:18:46;7.43;;;1.05;;
32613;SDS011;19031;51.400;6.770;2023-03-26T03:21:18;10.75;;;2.03;;
32613;SDS011;19031;51.400;6.770;2023-03-26T03:23:52;9.68;;;1.60;;
32613;SDS011;19031;51.400;6.770;2023-03-26T03:26:19;8.25;;;1.20;;
32613;SDS011;19031;51.400;6.770;2023-03-26T03:28:46;6.78;;;1.38;;
32613;SDS011;19031;51.400;6.770;2023-03-26T03:31:12;1.50;;;0.60;;
32613;SDS011;19031;51.400;6.770;2023-03-26T03:33:39;5.00;;;1.40;;
32613;SDS011;19031;51.400;6.770;2023-03-26T03:36:07;8.27;;;1.25;;
32613;SDS011;19031;51.400;6.770;2023-03-26T03:38:35;4.47;;;1.27;;
32613;SDS011;19031;51.400;6.770;2023-03-26T03:41:02;4.72;;;1.20;;
32613;SDS011;19031;51.400;6.770;2023-03-26T03:43:27;10.77;;;1.48;;
32613;SDS011;19031;51.400;6.770;2023-03-26T03:45:53;10.38;;;1.60;;
32613;SDS011;19031;51.400;6.770;2023-03-26T03:48:19;10.98;;;1.25;;
32613;SDS011;19031;51.400;6.770;2023-03-26T03:50:44;4.75;;;0.90;;
32613;SDS011;19031;51.400;6.770;2023-03-26T03:53:10;2.20;;;1.00;;
32613;SDS011;19031;51.400;6.770;2023-03-26T03:55:39;12.77;;;1.63;;
32613;SDS011;19031;51.400;6.770;2023-03-26T03:58:17;7.35;;;1.30;;
32613;SDS011;19031;51.400;6.770;2023-03-26T04:00:46;13.55;;;2.22;;
32613;SDS011;19031;51.400;6.770;2023-03-26T04:03:16;5.93;;;0.80;;
32613;SDS011;19031;51.400;6.770;2023-03-26T04:05:43;7.68;;;0.73;;
32613;SDS011;19031;51.400;6.770;2023-03-26T04:08:14;7.57;;;0.70;;
32613;SDS011;19031;51.400;6.770;2023-03-26T04:10:40;7.78;;;2.15;;
32613;SDS011;19031;51.400;6.770;2023-03-26T04:13:07;11.60;;;1.55;;
32613;SDS011;19031;51.400;6.770;2023-03-26T04:15:34;10.15;;;2.08;;
32613;SDS011;19031;51.400;6.770;2023-03-26T04:18:00;1.67;;;0.55;;
32613;SDS011;19031;51.400;6.770;2023-03-26T04:20:26;7.35;;;1.17;;
32613;SDS011;19031;51.400;6.770;2023-03-26T04:22:52;2.00;;;0.95;;
32613;SDS011;19031;51.400;6.770;2023-03-26T04:25:17;12.27;;;1.77;;
32613;SDS011;19031;51.400;6.770;2023-03-26T04:27:43;4.40;;;1.27;;
32613;SDS011;19031;51.400;6.770;2023-03-26T04:30:10;4.65;;;0.93;;
32613;SDS011;19031;51.400;6.770;2023-03-26T04:32:40;7.82;;;0.88;;
32613;SDS011;19031;51.400;6.770;2023-03-26T04:35:07;5.40;;;1.70;;
32613;SDS011;19031;51.400;6.770;2023-03-26T04:37:39;12.05;;;1.65;;
32613;SDS011;19031;51.400;6.770;2023-03-26T04:40:13;5.20;;;0.65;;
32613;SDS011;19031;51.400;6.770;2023-03-26T04:42:40;15.57;;;1.60;;
32613;SDS011;19031;51.400;6.770;2023-03-26T04:45:10;15.82;;;1.83;;
32613;SDS011;19031;51.400;6.770;2023-03-26T04:47:40;8.82;;;1.80;;
32613;SDS011;19031;51.400;6.770;2023-03-26T04:50:06;13.93;;;1.88;;
32613;SDS011;19031;51.400;6.770;2023-03-26T04:52:33;9.07;;;1.48;;
32613;SDS011;19031;51.400;6.770;2023-03-26T04:55:00;9.95;;;1.85;;
32613;SDS011;19031;51.400;6.770;2023-03-26T04:57:26;8.48;;;0.82;;
32613;SDS011;19031;51.400;6.770;2023-03-26T04:59:56;2.28;;;0.68;;
32613;SDS011;19031;51.400;6.770;2023-03-26T05:02:22;15.45;;;1.27;;
32613;SDS011;19031;51.400;6.770;2023-03-26T05:04:48;6.22;;;1.10;;
32613;SDS011;19031;51.400;6.770;2023-03-26T05:07:16;11.38;;;1.48;;
32613;SDS011;19031;51.400;6.770;2023-03-26T05:09:46;12.98;;;1.73;;
32613;SDS011;19031;51.400;6.770;2023-03-26T05:12:11;12.80;;;1.45;;
32613;SDS011;19031;51.400;6.770;2023-03-26T05:14:37;4.97;;;0.85;;
32613;SDS011;19031;51.400;6.770;2023-03-26T05:17:03;5.00;;;1.52;;
32613;SDS011;19031;51.400;6.770;2023-03-26T05:19:35;13.27;;;1.58;;
32613;SDS011;19031;51.400;6.770;2023-03-26T05:22:01;4.45;;;0.80;;
32613;SDS011;19031;51.400;6.770;2023-03-26T05:24:27;8.77;;;0.93;;
32613;SDS011;19031;51.400;6.770;2023-03-26T05:26:52;6.28;;;1.02;;
32613;SDS011;19031;51.400;6.770;2023-03-26T05:29:18;7.80;;;2.08;;
32613;SDS011;19031;51.400;6.770;2023-03-26T05:31:46;4.10;;;0.50;;
32613;SDS011;19031;51.400;6.770;2023-03-26T05:34:12;8.70;;;1.23;;
32613;SDS011;19031;51.400;6.770;2023-03-26T05:36:38;3.90;;;0.82;;
32613;SDS011;19031;51.400;6.770;2023-03-26T05:39:04;5.45;;;1.35;;
32613;SDS011;19031;51.400;6.770;2023-03-26T05:41:30;9.35;;;1.20;;
32613;SDS011;19031;51.400;6.770;2023-03-26T05:43:56;10.85;;;2.00;;
32613;SDS011;19031;51.400;6.770;2023-03-26T05:46:21;3.60;;;0.68;;
32613;SDS011;19031;51.400;6.770;2023-03-26T05:48:47;6.72;;;1.13;;
32613;SDS011;19031;51.400;6.770;2023-03-26T05:51:13;6.53;;;1.60;;
32613;SDS011;19031;51.400;6.770;2023-03-26T05:53:42;7.28;;;1.40;;
32613;SDS011;19031;51.400;6.770;2023-03-26T05:56:07;3.92;;;0.75;;
32613;SDS011;19031;51.400;6.770;2023-03-26T05:58:33;7.80;;;1.77;;
32613;SDS011;19031;51.400;6.770;2023-03-26T06:01:07;4.35;;;0.70;;
32613;SDS011;19031;51.400;6.770;2023-03-26T06:03:35;6.68;;;1.27;;
32613;SDS011;19031;51.400;6.770;2023-03-26T06:06:02;18.30;;;1.75;;
32613;SDS011;19031;51.400;6.770;2023-03-26T06:08:30;11.20;;;1.42;;
32613;SDS011;19031;51.400;6.770;2023-03-26T06:11:00;7.32;;;1.35;;
32613;SDS011;19031;51.400;6.770;2023-03-26T06:13:28;9.57;;;1.20;;
32613;SDS011;19031;51.400;6.770;2023-03-26T06:15:54;9.48;;;1.17;;
32613;SDS011;19031;51.400;6.770;2023-03-26T06:18:21;5.55;;;1.20;;
32613;SDS011;19031;51.400;6.770;2023-03-26T06:20:47;11.70;;;1.02;;
32613;SDS011;19031;51.400;6.770;2023-03-26T06:23:13;5.05;;;1.48;;
32613;SDS011;19031;51.400;6.770;2023-03-26T06:25:38;18.20;;;1.35;;
32613;SDS011;19031;51.400;6.770;2023-03-26T06:28:05;6.88;;;1.15;;
32613;SDS011;19031;51.400;6.770;2023-03-26T06:30:31;4.88;;;0.73;;
32613;SDS011;19031;51.400;6.770;2023-03-26T06:32:56;7.18;;;1.90;;
32613;SDS011;19031;51.400;6.770;2023-03-26T06:35:22;2.17;;;0.50;;
32613;SDS011;19031;51.400;6.770;2023-03-26T06:37:48;10.18;;;1.33;;
32613;SDS011;19031;51.400;6.770;2023-03-26T06:40:14;18.58;;;1.42;;
32613;SDS011;19031;51.400;6.770;2023-03-26T06:42:39;9.07;;;1.23;;
32613;SDS011;19031;51.400;6.770;2023-03-26T06:45:05;7.55;;;1.23;;
32613;SDS011;19031;51.400;6.770;2023-03-26T06:47:31;6.13;;;0.63;;
32613;SDS011;19031;51.400;6.770;2023-03-26T06:49:57;7.53;;;1.10;;
32613;SDS011;19031;51.400;6.770;2023-03-26T06:52:23;10.52;;;1.60;;
32613;SDS011;19031;51.400;6.770;2023-03-26T06:54:48;13.40;;;1.55;;
32613;SDS011;19031;51.400;6.770;2023-03-26T06:57:14;8.85;;;1.38;;
32613;SDS011;19031;51.400;6.770;2023-03-26T06:59:40;5.32;;;1.58;;
32613;SDS011;19031;51.400;6.770;2023-03-26T07:02:06;4.60;;;1.17;;
32613;SDS011;19031;51.400;6.770;2023-03-26T07:04:31;3.97;;;1.00;;
32613;SDS011;19031;51.400;6.770;2023-03-26T07:06:57;9.05;;;1.35;;
32613;SDS011;19031;51.400;6.770;2023-03-26T07:09:22;7.38;;;0.77;;
32613;SDS011;19031;51.400;6.770;2023-03-26T07:11:50;5.35;;;1.13;;
32613;SDS011;19031;51.400;6.770;2023-03-26T07:14:15;11.75;;;1.20;;
32613;SDS011;19031;51.400;6.770;2023-03-26T07:16:41;4.60;;;1.48;;
32613;SDS011;19031;51.400;6.770;2023-03-26T07:19:06;7.90;;;1.40;;
32613;SDS011;19031;51.400;6.770;2023-03-26T07:21:32;6.57;;;1.08;;
32613;SDS011;19031;51.400;6.770;2023-03-26T07:23:58;2.55;;;0.80;;
32613;SDS011;19031;51.400;6.770;2023-03-26T07:31:46;5.88;;;1.27;;
32613;SDS011;19031;51.400;6.770;2023-03-26T07:35:06;7.60;;;1.50;;
32613;SDS011;19031;51.400;6.770;2023-03-26T07:45:44;4.20;;;0.90;;
32613;SDS011;19031;51.400;6.770;2023-03-26T07:48:17;7.47;;;1.55;;
32613;SDS011;19031;51.400;6.770;2023-03-26T07:50:43;5.55;;;1.33;;
32613;SDS011;19031;51.400;6.770;2023-03-26T07:53:09;4.85;;;1.27;;
32613;SDS011;19031;51.400;6.770;2023-03-26T07:58:29;11.48;;;1.20;;
32613;SDS011;19031;51.400;6.770;2023-03-26T08:06:34;6.55;;;1.15;;
32613;SDS011;19031;51.400;6.770;2023-03-26T08:16:55;9.80;;;1.77;;
32613;SDS011;19031;51.400;6.770;2023-03-26T08:20:01;4.55;;;1.33;;
32613;SDS011;19031;51.400;6.770;2023-03-26T08:22:45;6.97;;;0.90;;
32613;SDS011;19031;51.400;6.770;2023-03-26T08:25:33;4.88;;;1.30;;
32613;SDS011;19031;51.400;6.770;2023-03-26T08:28:26;11.23;;;2.10;;
32613;SDS011;19031;51.400;6.770;2023-03-26T08:31:03;6.80;;;1.20;;
32613;SDS011;19031;51.400;6.770;2023-03-26T08:33:29;5.13;;;1.25;;
32613;SDS011;19031;51.400;6.770;2023-03-26T08:35:56;4.80;;;1.25;;
32613;SDS011;19031;51.400;6.770;2023-03-26T08:38:22;4.50;;;1.10;;
32613;SDS011;19031;51.400;6.770;2023-03-26T09:11:30;8.77;;;1.02;;
32613;SDS011;19031;51.400;6.770;2023-03-26T09:16:57;4.47;;;1.05;;
32613;SDS011;19031;51.400;6.770;2023-03-26T09:28:31;4.82;;;1.15;;
32613;SDS011;19031;51.400;6.770;2023-03-26T09:31:21;3.55;;;0.93;;
32613;SDS011;19031;51.400;6.770;2023-03-26T09:44:40;6.72;;;1.80;;
32613;SDS011;19031;51.400;6.770;2023-03-26T09:53:39;1.33;;;0.60;;
32613;SDS011;19031;51.400;6.770;2023-03-26T09:56:12;1.45;;;1.08;;
32613;SDS011;19031;51.400;6.770;2023-03-26T10:02:11;2.05;;;0.77;;
32613;SDS011;19031;51.400;6.770;2023-03-26T10:08:02;1.27;;;0.60;;
32613;SDS011;19031;51.400;6.770;2023-03-26T10:17:04;2.13;;;0.60;;
32613;SDS011;19031;51.400;6.770;2023-03-26T10:27:36;2.78;;;0.88;;
32613;SDS011;19031;51.400;6.770;2023-03-26T10:52:53;4.30;;;0.60;;
32613;SDS011;19031;51.400;6.770;2023-03-26T10:55:47;2.90;;;0.60;;
32613;SDS011;19031;51.400;6.770;2023-03-26T10:58:25;0.77;;;0.47;;
32613;SDS011;19031;51.400;6.770;2023-03-26T11:00:59;5.75;;;0.60;;
32613;SDS011;19031;51.400;6.770;2023-03-26T11:17:11;1.50;;;0.40;;
32613;SDS011;19031;51.400;6.770;2023-03-26T11:19:53;0.65;;;0.40;;
32613;SDS011;19031;51.400;6.770;2023-03-26T11:22:33;2.38;;;0.95;;
32613;SDS011;19031;51.400;6.770;2023-03-26T11:30:47;2.63;;;0.43;;
32613;SDS011;19031;51.400;6.770;2023-03-26T11:33:27;0.85;;;0.13;;
32613;SDS011;19031;51.400;6.770;2023-03-26T11:36:01;3.47;;;0.50;;
32613;SDS011;19031;51.400;6.770;2023-03-26T11:41:04;4.95;;;0.47;;
32613;SDS011;19031;51.400;6.770;2023-03-26T11:43:37;1.38;;;0.40;;
32613;SDS011;19031;51.400;6.770;2023-03-26T11:46:07;1.05;;;0.30;;
32613;SDS011;19031;51.400;6.770;2023-03-26T11:48:40;0.60;;;0.20;;
32613;SDS011;19031;51.400;6.770;2023-03-26T11:53:53;0.17;;;0.10;;
32613;SDS011;19031;51.400;6.770;2023-03-26T11:56:32;2.60;;;0.20;;
32613;SDS011;19031;51.400;6.770;2023-03-26T12:01:49;0.95;;;0.25;;
32613;SDS011;19031;51.400;6.770;2023-03-26T12:04:17;0.40;;;0.10;;
32613;SDS011;19031;51.400;6.770;2023-03-26T12:06:50;0.08;;;0.08;;
32613;SDS011;19031;51.400;6.770;2023-03-26T12:09:21;0.50;;;0.10;;
32613;SDS011;19031;51.400;6.770;2023-03-26T12:11:48;0.25;;;0.20;;
32613;SDS011;19031;51.400;6.770;2023-03-26T12:14:17;2.05;;;0.20;;
32613;SDS011;19031;51.400;6.770;2023-03-26T12:19:26;2.17;;;0.35;;
32613;SDS011;19031;51.400;6.770;2023-03-26T12:27:41;1.10;;;0.22;;
32613;SDS011;19031;51.400;6.770;2023-03-26T12:32:44;0.73;;;0.10;;
32613;SDS011;19031;51.400;6.770;2023-03-26T12:35:14;1.83;;;0.38;;
32613;SDS011;19031;51.400;6.770;2023-03-26T12:37:45;0.30;;;0.20;;
32613;SDS011;19031;51.400;6.770;2023-03-26T12:42:53;1.17;;;0.15;;
32613;SDS011;19031;51.400;6.770;2023-03-26T12:45:22;1.60;;;0.28;;
32613;SDS011;19031;51.400;6.770;2023-03-26T12:47:52;0.30;;;0.20;;
32613;SDS011;19031;51.400;6.770;2023-03-26T12:50:20;0.73;;;0.22;;
32613;SDS011;19031;51.400;6.770;2023-03-26T12:52:59;0.13;;;0.10;;
32613;SDS011;19031;51.400;6.770;2023-03-26T13:06:49;0.30;;;0.20;;
32613;SDS011;19031;51.400;6.770;2023-03-26T13:26:30;1.48;;;0.15;;
32613;SDS011;19031;51.400;6.770;2023-03-26T13:32:33;0.30;;;0.15;;
32613;SDS011;19031;51.400;6.770;2023-03-26T13:35:27;0.63;;;0.20;;
32613;SDS011;19031;51.400;6.770;2023-03-26T13:43:42;0.20;;;0.10;;
32613;SDS011;19031;51.400;6.770;2023-03-26T13:49:10;1.10;;;0.10;;
32613;SDS011;19031;51.400;6.770;2023-03-26T13:51:43;0.52;;;0.20;;
32613;SDS011;19031;51.400;6.770;2023-03-26T13:54:22;0.08;;;0.00;;
32613;SDS011;19031;51.400;6.770;2023-03-26T13:56:59;0.10;;;0.10;;
32613;SDS011;19031;51.400;6.770;2023-03-26T13:59:39;0.20;;;0.20;;
32613;SDS011;19031;51.400;6.770;2023-03-26T14:02:17;0.30;;;0.10;;
32613;SDS011;19031;51.400;6.770;2023-03-26T14:04:49;0.65;;;0.30;;
32613;SDS011;19031;51.400;6.770;2023-03-26T14:10:12;0.50;;;0.30;;
32613;SDS011;19031;51.400;6.770;2023-03-26T14:12:44;0.73;;;0.50;;
32613;SDS011;19031;51.400;6.770;2023-03-26T14:17:40;1.70;;;0.47;;
32613;SDS011;19031;51.400;6.770;2023-03-26T14:20:35;1.73;;;0.65;;
32613;SDS011;19031;51.400;6.770;2023-03-26T14:26:13;1.95;;;0.52;;
32613;SDS011;19031;51.400;6.770;2023-03-26T14:46:34;1.95;;;0.70;;
32613;SDS011;19031;51.400;6.770;2023-03-26T14:54:40;6.75;;;0.70;;
32613;SDS011;19031;51.400;6.770;2023-03-26T15:23:13;1.20;;;0.60;;
32613;SDS011;19031;51.400;6.770;2023-03-26T15:34:38;1.40;;;0.57;;
32613;SDS011;19031;51.400;6.770;2023-03-26T15:40:15;2.30;;;0.75;;
32613;SDS011;19031;51.400;6.770;2023-03-26T15:50:37;2.97;;;0.70;;
32613;SDS011;19031;51.400;6.770;2023-03-26T15:53:11;1.40;;;0.65;;
32613;SDS011;19031;51.400;6.770;2023-03-26T16:06:58;6.40;;;1.42;;
32613;SDS011;19031;51.400;6.770;2023-03-26T16:09:49;3.75;;;1.05;;
32613;SDS011;19031;51.400;6.770;2023-03-26T16:12:28;3.00;;;1.13;;
32613;SDS011;19031;51.400;6.770;2023-03-26T16:18:03;4.35;;;2.03;;
32613;SDS011;19031;51.400;6.770;2023-03-26T16:20:43;7.90;;;1.30;;
32613;SDS011;19031;51.400;6.770;2023-03-26T16:26:26;7.55;;;1.65;;
32613;SDS011;19031;51.400;6.770;2023-03-26T16:29:20;2.90;;;1.55;;
32613;SDS011;19031;51.400;6.770;2023-03-26T16:34:26;8.43;;;1.60;;
32613;SDS011;19031;51.400;6.770;2023-03-26T16:37:00;8.60;;;1.60;;
32613;SDS011;19031;51.400;6.770;2023-03-26T16:44:44;6.45;;;1.63;;
32613;SDS011;19031;51.400;6.770;2023-03-26T16:50:05;6.15;;;1.48;;
32613;SDS011;19031;51.400;6.770;2023-03-26T16:55:27;8.55;;;2.10;;
32613;SDS011;19031;51.400;6.770;2023-03-26T17:00:47;9.20;;;1.95;;
32613;SDS011;19031;51.400;6.770;2023-03-26T17:06:35;7.60;;;2.05;;
32613;SDS011;19031;51.400;6.770;2023-03-26T17:14:34;18.63;;;2.05;;
32613;SDS011;19031;51.400;6.770;2023-03-26T17:26:09;4.05;;;1.35;;
32613;SDS011;19031;51.400;6.770;2023-03-26T17:28:53;2.35;;;1.23;;
32613;SDS011;19031;51.400;6.770;2023-03-26T17:31:40;11.85;;;1.58;;
32613;SDS011;19031;51.400;6.770;2023-03-26T17:36:56;6.45;;;1.70;;
32613;SDS011;19031;51.400;6.770;2023-03-26T17:42:12;8.40;;;1.65;;
32613;SDS011;19031;51.400;6.770;2023-03-26T17:44:53;5.75;;;1.50;;
32613;SDS011;19031;51.400;6.770;2023-03-26T17:49:48;2.58;;;1.75;;
32613;SDS011;19031;51.400;6.770;2023-03-26T17:52:19;7.82;;;1.65;;
32613;SDS011;19031;51.400;6.770;2023-03-26T17:54:50;15.15;;;1.58;;
32613;SDS011;19031;51.400;6.770;2023-03-26T17:57:26;4.10;;;1.45;;
32613;SDS011;19031;51.400;6.770;2023-03-26T18:00:21;4.53;;;1.05;;
32613;SDS011;19031;51.400;6.770;2023-03-26T18:02:51;5.30;;;1.40;;
32613;SDS011;19031;51.400;6.770;2023-03-26T18:05:18;6.43;;;1.17;;
32613;SDS011;19031;51.400;6.770;2023-03-26T18:24:04;2.63;;;0.80;;
32613;SDS011;19031;51.400;6.770;2023-03-26T18:29:18;5.32;;;0.63;;
32613;SDS011;19031;51.400;6.770;2023-03-26T18:31:56;4.03;;;1.13;;
32613;SDS011;19031;51.400;6.770;2023-03-26T18:34:24;7.30;;;1.05;;
32613;SDS011;19031;51.400;6.770;2023-03-26T18:37:11;7.72;;;1.40;;
32613;SDS011;19031;51.400;6.770;2023-03-26T18:39:55;4.00;;;1.55;;
32613;SDS011;19031;51.400;6.770;2023-03-26T18:42:20;7.10;;;1.17;;
32613;SDS011;19031;51.400;6.770;2023-03-26T18:44:47;5.40;;;0.70;;
32613;SDS011;19031;51.400;6.770;2023-03-26T18:47:17;5.72;;;1.50;;
32613;SDS011;19031;51.400;6.770;2023-03-26T18:49:44;4.90;;;0.93;;
32613;SDS011;19031;51.400;6.770;2023-03-26T18:52:12;7.13;;;0.93;;
32613;SDS011;19031;51.400;6.770;2023-03-26T18:54:43;5.82;;;1.10;;
32613;SDS011;19031;51.400;6.770;2023-03-26T18:57:20;5.55;;;1.38;;
32613;SDS011;19031;51.400;6.770;2023-03-26T18:59:51;3.80;;;0.60;;
32613;SDS011;19031;51.400;6.770;2023-03-26T19:02:18;5.32;;;1.88;;
32613;SDS011;19031;51.400;6.770;2023-03-26T19:04:45;3.17;;;0.80;;
32613;SDS011;19031;51.400;6.770;2023-03-26T19:07:14;1.40;;;0.65;;
32613;SDS011;19031;51.400;6.770;2023-03-26T19:09:46;4.32;;;0.60;;
32613;SDS011;19031;51.400;6.770;2023-03-26T19:12:20;5.18;;;0.88;;
32613;SDS011;19031;51.400;6.770;2023-03-26T19:17:44;10.65;;;1.23;;
32613;SDS011;19031;51.400;6.770;2023-03-26T19:20:16;4.10;;;1.00;;
32613;SDS011;19031;51.400;6.770;2023-03-26T19:22:45;1.60;;;0.70;;
32613;SDS011;19031;51.400;6.770;2023-03-26T19:25:19;6.47;;;1.33;;
32613;SDS011;19031;51.400;6.770;2023-03-26T19:27:51;2.40;;;0.85;;
32613;SDS011;19031;51.400;6.770;2023-03-26T19:30:23;7.93;;;2.05;;
32613;SDS011;19031;51.400;6.770;2023-03-26T19:33:10;2.20;;;0.57;;
32613;SDS011;19031;51.400;6.770;2023-03-26T19:35:42;14.82;;;1.48;;
32613;SDS011;19031;51.400;6.770;2023-03-26T19:38:20;3.17;;;0.93;;
32613;SDS011;19031;51.400;6.770;2023-03-26T19:40:48;8.80;;;1.10;;
32613;SDS011;19031;51.400;6.770;2023-03-26T19:43:19;5.50;;;1.13;;
32613;SDS011;19031;51.400;6.770;2023-03-26T19:45:45;9.68;;;1.02;;
32613;SDS011;19031;51.400;6.770;2023-03-26T19:48:13;12.10;;;0.60;;
32613;SDS011;19031;51.400;6.770;2023-03-26T19:50:50;1.30;;;0.52;;
32613;SDS011;19031;51.400;6.770;2023-03-26T19:53:32;2.30;;;0.68;;
32613;SDS011;19031;51.400;6.770;2023-03-26T19:56:12;1.27;;;0.65;;
32613;SDS011;19031;51.400;6.770;2023-03-26T19:58:39;3.22;;;1.00;;
32613;SDS011;19031;51.400;6.770;2023-03-26T20:01:08;2.15;;;0.50;;
32613;SDS011;19031;51.400;6.770;2023-03-26T20:03:41;8.60;;;0.77;;
32613;SDS011;19031;51.400;6.770;2023-03-26T20:06:13;3.75;;;0.60;;
32613;SDS011;19031;51.400;6.770;2023-03-26T20:08:43;7.43;;;0.90;;
32613;SDS011;19031;51.400;6.770;2023-03-26T20:14:06;6.35;;;0.85;;
32613;SDS011;19031;51.400;6.770;2023-03-26T20:16:39;6.68;;;0.88;;
32613;SDS011;19031;51.400;6.770;2023-03-26T20:19:05;10.35;;;1.08;;
32613;SDS011;19031;51.400;6.770;2023-03-26T20:21:32;4.82;;;0.82;;
32613;SDS011;19031;51.400;6.770;2023-03-26T20:23:58;4.05;;;0.65;;
32613;SDS011;19031;51.400;6.770;2023-03-26T20:26:24;6.22;;;0.60;;
32613;SDS011;19031;51.400;6.770;2023-03-26T20:31:52;0.32;;;0.20;;
32613;SDS011;19031;51.400;6.770;2023-03-26T20:34:19;13.20;;;1.15;;
32613;SDS011;19031;51.400;6.770;2023-03-26T20:36:46;3.70;;;0.82;;
32613;SDS011;19031;51.400;6.770;2023-03-26T20:39:18;6.97;;;1.50;;
32613;SDS011;19031;51.400;6.770;2023-03-26T20:41:45;7.65;;;0.40;;
32613;SDS011;19031;51.400;6.770;2023-03-26T20:44:13;6.63;;;1.00;;
32613;SDS011;19031;51.400;6.770;2023-03-26T20:46:41;3.42;;;0.70;;
32613;SDS011;19031;51.400;6.770;2023-03-26T20:49:08;8.48;;;0.80;;
32613;SDS011;19031;51.400;6.770;2023-03-26T20:51:36;2.78;;;0.47;;
32613;SDS011;19031;51.400;6.770;2023-03-26T20:54:05;8.50;;;1.35;;
32613;SDS011;19031;51.400;6.770;2023-03-26T20:56:36;4.23;;;1.03;;
32613;SDS011;19031;51.400;6.770;2023-03-26T20:59:05;2.50;;;0.20;;
32613;SDS011;19031;51.400;6.770;2023-03-26T21:01:31;5.05;;;0.65;;
32613;SDS011;19031;51.400;6.770;2023-03-26T21:03:57;4.40;;;1.88;;
32613;SDS011;19031;51.400;6.770;2023-03-26T21:06:22;5.10;;;0.47;;
32613;SDS011;19031;51.400;6.770;2023-03-26T21:08:48;3.00;;;0.73;;
32613;SDS011;19031;51.400;6.770;2023-03-26T21:14:09;0.28;;;0.22;;
32613;SDS011;19031;51.400;6.770;2023-03-26T21:16:42;1.38;;;0.40;;
32613;SDS011;19031;51.400;6.770;2023-03-26T21:19:08;7.15;;;0.60;;
32613;SDS011;19031;51.400;6.770;2023-03-26T21:26:53;4.75;;;0.77;;
32613;SDS011;19031;51.400;6.770;2023-03-26T21:29:29;5.85;;;0.35;;
32613;SDS011;19031;51.400;6.770;2023-03-26T21:31:56;3.33;;;0.77;;
32613;SDS011;19031;51.400;6.770;2023-03-26T21:34:21;2.25;;;0.40;;
32613;SDS011;19031;51.400;6.770;2023-03-26T21:36:47;2.28;;;0.30;;
32613;SDS011;19031;51.400;6.770;2023-03-26T21:39:13;2.50;;;0.73;;
32613;SDS011;19031;51.400;6.770;2023-03-26T21:41:42;0.22;;;0.20;;
32613;SDS011;19031;51.400;6.770;2023-03-26T21:44:11;4.85;;;0.38;;
32613;SDS011;19031;51.400;6.770;2023-03-26T21:46:39;3.47;;;0.73;;
32613;SDS011;19031;51.400;6.770;2023-03-26T21:49:06;1.13;;;0.25;;